createdAt,value
2018-09-26T00:00:21.747Z,7.98
2018-09-26T00:02:56.745Z,8.32
2018-09-26T00:05:24.768Z,8.54
2018-09-26T00:07:52.660Z,8.70
2018-09-26T00:10:20.740Z,8.76
2018-09-26T00:12:48.704Z,8.80
2018-09-26T00:15:16.628Z,8.88
2018-09-26T00:17:44.800Z,8.90
2018-09-26T00:20:12.748Z,8.94
2018-09-26T00:22:40.628Z,8.96
2018-09-26T00:25:08.620Z,8.93
2018-09-26T00:27:36.575Z,8.89
2018-09-26T00:30:04.580Z,8.91
2018-09-26T00:32:32.604Z,8.95
2018-09-26T00:35:00.600Z,8.93
2018-09-26T00:37:28.609Z,8.89
2018-09-26T00:39:56.624Z,8.89
2018-09-26T00:42:24.553Z,8.88
2018-09-26T00:44:52.521Z,8.93
2018-09-26T00:47:20.477Z,8.93
2018-09-26T00:49:48.401Z,8.93
2018-09-26T00:52:16.322Z,8.95
2018-09-26T00:54:44.727Z,8.94
2018-09-26T00:57:12.660Z,8.91
2018-09-26T00:59:40.545Z,8.88
2018-09-26T01:02:08.503Z,8.85
2018-09-26T01:04:36.421Z,8.86
2018-09-26T01:07:04.360Z,8.84
2018-09-26T01:09:32.320Z,8.81
2018-09-26T01:12:00.296Z,8.83
2018-09-26T01:14:28.320Z,8.80
2018-09-26T01:16:56.210Z,8.78
2018-09-26T01:19:24.126Z,8.80
2018-09-26T01:21:52.042Z,8.78
2018-09-26T01:24:20.017Z,8.76
2018-09-26T01:26:47.866Z,8.76
2018-09-26T01:29:15.836Z,8.77
2018-09-26T01:31:43.783Z,8.73
2018-09-26T01:34:11.726Z,8.75
2018-09-26T01:36:39.705Z,8.70
2018-09-26T01:39:08.662Z,8.68
2018-09-26T01:41:36.648Z,8.74
2018-09-26T01:44:04.743Z,8.75
2018-09-26T01:46:32.636Z,8.73
2018-09-26T01:49:00.634Z,8.75
2018-09-26T01:51:28.561Z,8.79
2018-09-26T01:53:56.495Z,8.79
2018-09-26T01:56:24.440Z,8.80
2018-09-26T01:58:52.346Z,8.76
2018-09-26T02:01:20.297Z,8.78
2018-09-26T02:03:48.151Z,8.79
2018-09-26T02:06:16.301Z,8.84
2018-09-26T02:08:44.144Z,8.82
2018-09-26T02:11:12.117Z,8.82
2018-09-26T02:13:40.036Z,8.81
2018-09-26T02:16:08.210Z,8.79
2018-09-26T02:18:36.085Z,8.81
2018-09-26T02:21:04.091Z,8.81
2018-09-26T02:23:32.058Z,8.78
2018-09-26T02:26:00.060Z,8.76
2018-09-26T02:28:28.005Z,8.73
2018-09-26T02:30:55.972Z,8.66
2018-09-26T02:33:23.865Z,8.63
2018-09-26T02:35:51.828Z,8.59
2018-09-26T02:38:19.705Z,8.58
2018-09-26T02:40:47.690Z,8.54
2018-09-26T02:43:15.866Z,8.50
2018-09-26T02:45:43.812Z,8.49
2018-09-26T02:48:16.360Z,8.45
2018-09-26T02:50:44.380Z,8.38
2018-09-26T02:53:12.570Z,8.36
2018-09-26T02:55:40.550Z,8.34
2018-09-26T02:58:08.713Z,8.31
2018-09-26T03:00:36.659Z,8.29
2018-09-26T03:03:04.602Z,8.23
2018-09-26T03:05:32.625Z,8.27
2018-09-26T03:08:00.573Z,8.22
2018-09-26T03:10:28.583Z,8.22
2018-09-26T03:12:56.525Z,8.19
2018-09-26T03:15:24.574Z,8.15
2018-09-26T03:17:52.524Z,8.13
2018-09-26T03:20:20.461Z,8.13
2018-09-26T03:22:48.625Z,8.18
2018-09-26T03:25:16.578Z,8.18
2018-09-26T03:27:44.508Z,8.19
2018-09-26T03:30:12.495Z,8.17
2018-09-26T03:32:40.410Z,8.15
2018-09-26T03:35:08.401Z,8.14
2018-09-26T03:37:36.301Z,8.09
2018-09-26T03:40:04.321Z,8.08
2018-09-26T03:42:32.313Z,8.08
2018-09-26T03:45:00.233Z,8.05
2018-09-26T03:47:28.220Z,8.04
2018-09-26T03:49:56.104Z,8.03
2018-09-26T03:52:24.066Z,8.01
2018-09-26T03:54:51.960Z,8.01
2018-09-26T03:57:19.957Z,7.99
2018-09-26T03:59:48.050Z,7.98
2018-09-26T04:02:16.204Z,7.97
2018-09-26T04:04:44.357Z,8.02
2018-09-26T04:07:12.418Z,7.99
2018-09-26T04:09:40.720Z,8.04
2018-09-26T04:12:08.707Z,8.09
2018-09-26T04:14:36.631Z,8.11
2018-09-26T04:17:04.626Z,8.13
2018-09-26T04:19:32.537Z,8.14
2018-09-26T04:22:00.505Z,8.16
2018-09-26T04:24:28.387Z,8.15
2018-09-26T04:26:56.770Z,8.14
2018-09-26T04:29:24.565Z,8.17
2018-09-26T04:31:52.952Z,8.22
2018-09-26T04:34:21.099Z,8.27
2018-09-26T04:36:49.280Z,8.31
2018-09-26T04:39:17.209Z,8.32
2018-09-26T04:41:45.411Z,8.33
2018-09-26T04:44:13.482Z,8.35
2018-09-26T04:46:41.712Z,8.35
2018-09-26T04:49:09.830Z,8.33
2018-09-26T04:51:37.968Z,8.32
2018-09-26T04:54:06.503Z,8.31
2018-09-26T04:56:34.688Z,8.30
2018-09-26T04:59:03.086Z,8.31
2018-09-26T05:01:31.242Z,8.33
2018-09-26T05:03:59.462Z,8.31
2018-09-26T05:06:27.717Z,8.29
2018-09-26T05:08:55.860Z,8.25
2018-09-26T05:11:24.100Z,8.26
2018-09-26T05:13:52.340Z,8.22
2018-09-26T05:16:20.772Z,8.20
2018-09-26T05:18:48.936Z,8.18
2018-09-26T05:21:17.182Z,8.15
2018-09-26T05:23:45.422Z,8.11
2018-09-26T05:26:13.563Z,8.16
2018-09-26T05:28:41.741Z,8.10
2018-09-26T05:31:09.974Z,8.09
2018-09-26T05:33:38.132Z,8.18
2018-09-26T05:36:06.365Z,8.39
2018-09-26T05:38:34.520Z,8.96
2018-09-26T05:41:02.618Z,9.06
2018-09-26T05:43:30.859Z,9.43
2018-09-26T05:45:59.136Z,9.32
2018-09-26T05:48:27.295Z,9.05
2018-09-26T05:50:55.494Z,8.94
2018-09-26T05:53:23.803Z,8.72
2018-09-26T05:55:51.926Z,8.64
2018-09-26T05:58:20.107Z,8.56
2018-09-26T06:00:48.523Z,8.39
2018-09-26T06:03:16.923Z,8.57
2018-09-26T06:05:45.088Z,8.62
2018-09-26T06:08:13.252Z,8.72
2018-09-26T06:10:41.349Z,8.69
2018-09-26T06:13:09.710Z,8.72
2018-09-26T06:15:37.801Z,8.77
2018-09-26T06:18:06.115Z,8.95
2018-09-26T06:20:34.218Z,9.07
2018-09-26T06:23:02.467Z,9.15
2018-09-26T06:25:30.679Z,9.44
2018-09-26T06:27:58.799Z,9.67
2018-09-26T06:30:27.199Z,9.55
2018-09-26T06:32:55.402Z,9.76
2018-09-26T06:35:23.566Z,9.72
2018-09-26T06:37:51.819Z,9.87
2018-09-26T06:40:20.073Z,10.11
2018-09-26T06:42:48.469Z,10.10
2018-09-26T06:45:16.707Z,10.28
2018-09-26T06:47:44.937Z,10.61
2018-09-26T06:50:13.107Z,10.62
2018-09-26T06:52:41.311Z,10.84
2018-09-26T06:55:09.467Z,10.98
2018-09-26T06:57:37.621Z,11.22
2018-09-26T07:00:06.495Z,11.56
2018-09-26T07:02:34.705Z,11.20
2018-09-26T07:05:02.898Z,11.46
2018-09-26T07:07:31.230Z,11.47
2018-09-26T07:09:59.437Z,11.21
2018-09-26T07:12:27.735Z,11.53
2018-09-26T07:14:56.085Z,11.65
2018-09-26T07:17:24.239Z,11.86
2018-09-26T07:19:52.440Z,12.14
2018-09-26T07:22:20.661Z,12.28
2018-09-26T07:24:48.873Z,12.17
2018-09-26T07:27:17.024Z,12.36
2018-09-26T07:29:45.255Z,12.24
2018-09-26T07:32:13.395Z,12.51
2018-09-26T07:34:41.648Z,12.40
2018-09-26T07:37:09.760Z,12.64
2018-09-26T07:39:38.535Z,12.88
2018-09-26T07:42:06.796Z,12.90
2018-09-26T07:44:35.157Z,13.13
2018-09-26T07:47:03.288Z,13.37
2018-09-26T07:49:31.437Z,13.03
2018-09-26T07:51:59.663Z,13.01
2018-09-26T07:54:27.813Z,12.94
2018-09-26T07:56:55.903Z,12.72
2018-09-26T07:59:24.229Z,12.59
2018-09-26T08:01:52.343Z,13.06
2018-09-26T08:04:20.558Z,13.64
2018-09-26T08:06:48.760Z,14.01
2018-09-26T08:09:17.163Z,14.59
2018-09-26T08:11:45.485Z,14.57
2018-09-26T08:14:13.666Z,14.50
2018-09-26T08:16:41.690Z,14.27
2018-09-26T08:19:10.053Z,14.94
2018-09-26T08:21:38.203Z,15.28
2018-09-26T08:24:06.569Z,15.85
2018-09-26T08:26:34.618Z,15.72
2018-09-26T08:29:02.902Z,15.53
2018-09-26T08:31:31.083Z,15.43
2018-09-26T08:33:59.241Z,14.43
2018-09-26T08:36:27.426Z,14.73
2018-09-26T08:38:55.552Z,14.16
2018-09-26T08:41:23.711Z,14.54
2018-09-26T08:43:51.900Z,14.31
2018-09-26T08:46:20.359Z,13.88
2018-09-26T08:48:48.631Z,14.02
2018-09-26T08:51:16.791Z,14.11
2018-09-26T08:53:44.965Z,14.35
2018-09-26T08:56:13.284Z,14.64
2018-09-26T08:58:41.538Z,14.19
2018-09-26T09:01:15.200Z,14.53
2018-09-26T09:03:43.330Z,14.13
2018-09-26T09:06:11.578Z,14.16
2018-09-26T09:08:39.675Z,14.23
2018-09-26T09:11:07.907Z,13.98
2018-09-26T09:13:36.136Z,14.24
2018-09-26T09:16:04.344Z,14.37
2018-09-26T09:18:32.502Z,14.35
2018-09-26T09:21:00.744Z,13.97
2018-09-26T09:23:28.949Z,14.24
2018-09-26T09:25:57.149Z,14.43
2018-09-26T09:28:25.228Z,14.19
2018-09-26T09:30:53.454Z,14.10
2018-09-26T09:33:21.578Z,14.43
2018-09-26T09:35:49.899Z,14.38
2018-09-26T09:38:18.076Z,14.56
2018-09-26T09:40:46.295Z,14.79
2018-09-26T09:43:14.555Z,15.02
2018-09-26T09:45:42.920Z,14.98
2018-09-26T09:48:11.139Z,14.90
2018-09-26T09:50:39.636Z,14.67
2018-09-26T09:53:08.125Z,15.03
2018-09-26T09:55:36.302Z,15.01
2018-09-26T09:58:04.531Z,15.05
2018-09-26T10:00:38.282Z,15.00
2018-09-26T10:03:06.522Z,14.72
2018-09-26T10:05:34.836Z,14.72
2018-09-26T10:08:03.057Z,14.68
2018-09-26T10:10:31.432Z,14.98
2018-09-26T10:12:59.722Z,14.81
2018-09-26T10:15:28.118Z,15.18
2018-09-26T10:17:56.297Z,15.12
2018-09-26T10:20:24.890Z,14.94
2018-09-26T10:22:53.086Z,15.34
2018-09-26T10:25:21.380Z,15.24
2018-09-26T10:27:49.479Z,15.24
2018-09-26T10:30:17.861Z,15.16
2018-09-26T10:32:45.997Z,15.36
2018-09-26T10:35:14.157Z,15.59
2018-09-26T10:37:42.417Z,15.85
2018-09-26T10:40:10.620Z,15.67
2018-09-26T10:42:39.094Z,15.60
2018-09-26T10:45:07.383Z,15.73
2018-09-26T10:47:35.717Z,15.59
2018-09-26T10:50:03.871Z,15.48
2018-09-26T10:52:32.100Z,15.59
2018-09-26T10:55:00.333Z,15.60
2018-09-26T10:57:28.529Z,16.03
2018-09-26T10:59:56.685Z,16.48
2018-09-26T11:02:24.951Z,16.46
2018-09-26T11:04:53.069Z,17.14
2018-09-26T11:07:21.997Z,17.73
2018-09-26T11:09:50.192Z,18.03
2018-09-26T11:12:18.510Z,17.70
2018-09-26T11:14:46.727Z,17.63
2018-09-26T11:17:14.926Z,17.55
2018-09-26T11:19:43.054Z,17.14
2018-09-26T11:22:11.372Z,17.09
2018-09-26T11:24:39.585Z,17.18
2018-09-26T11:27:08.178Z,16.60
2018-09-26T11:29:36.679Z,16.39
2018-09-26T11:32:05.162Z,16.58
2018-09-26T11:34:33.381Z,16.46
2018-09-26T11:37:01.469Z,16.36
2018-09-26T11:39:29.589Z,16.32
2018-09-26T11:41:57.796Z,16.38
2018-09-26T11:44:26.092Z,16.30
2018-09-26T11:46:55.355Z,16.23
2018-09-26T11:49:23.567Z,16.36
2018-09-26T11:51:51.869Z,16.18
2018-09-26T11:54:20.119Z,16.20
2018-09-26T11:56:48.360Z,16.33
2018-09-26T11:59:16.741Z,16.22
2018-09-26T12:01:47.827Z,16.06
2018-09-26T12:04:16.194Z,16.30
2018-09-26T12:06:44.279Z,16.29
2018-09-26T12:09:12.429Z,16.61
2018-09-26T12:11:40.603Z,16.68
2018-09-26T12:14:08.943Z,16.68
2018-09-26T12:16:37.202Z,16.39
2018-09-26T12:19:05.385Z,16.50
2018-09-26T12:21:33.596Z,16.40
2018-09-26T12:24:08.539Z,16.32
2018-09-26T12:26:36.936Z,16.47
2018-09-26T12:29:05.197Z,16.47
2018-09-26T12:31:33.266Z,16.69
2018-09-26T12:34:01.480Z,16.72
2018-09-26T12:36:29.841Z,16.69
2018-09-26T12:38:58.069Z,16.63
2018-09-26T12:41:26.404Z,16.83
2018-09-26T12:43:54.690Z,16.86
2018-09-26T12:46:22.931Z,16.90
2018-09-26T12:48:51.268Z,16.96
2018-09-26T12:51:19.425Z,16.82
2018-09-26T12:53:47.801Z,16.90
2018-09-26T12:56:15.921Z,17.14
2018-09-26T12:58:44.245Z,17.23
2018-09-26T13:01:12.487Z,17.19
2018-09-26T13:03:40.704Z,17.12
2018-09-26T13:06:09.139Z,17.19
2018-09-26T13:08:37.368Z,17.35
2018-09-26T13:11:05.577Z,17.39
2018-09-26T13:13:33.759Z,17.46
2018-09-26T13:16:02.022Z,17.49
2018-09-26T13:18:30.178Z,17.40
2018-09-26T13:20:58.467Z,17.23
2018-09-26T13:23:26.665Z,17.24
2018-09-26T13:25:54.911Z,17.18
2018-09-26T13:28:23.102Z,17.35
2018-09-26T13:30:51.487Z,17.49
2018-09-26T13:33:19.685Z,17.17
2018-09-26T13:35:47.990Z,17.17
2018-09-26T13:38:16.208Z,17.18
2018-09-26T13:40:44.456Z,17.22
2018-09-26T13:43:12.577Z,17.25
2018-09-26T13:45:40.764Z,17.19
2018-09-26T13:48:08.892Z,17.23
2018-09-26T13:50:37.104Z,17.34
2018-09-26T13:53:05.385Z,17.27
2018-09-26T13:55:33.603Z,17.18
2018-09-26T13:58:01.706Z,17.24
2018-09-26T14:00:29.940Z,17.28
2018-09-26T14:02:58.268Z,17.37
2018-09-26T14:05:26.445Z,17.44
2018-09-26T14:07:54.552Z,17.27
2018-09-26T14:10:22.828Z,17.29
2018-09-26T14:12:50.980Z,17.28
2018-09-26T14:15:19.193Z,17.26
2018-09-26T14:17:47.447Z,17.34
2018-09-26T14:20:19.731Z,17.45
2018-09-26T14:22:48.092Z,17.37
2018-09-26T14:25:16.405Z,17.33
2018-09-26T14:27:44.631Z,17.30
2018-09-26T14:30:13.005Z,17.31
2018-09-26T14:32:41.328Z,17.22
2018-09-26T14:35:09.720Z,17.21
2018-09-26T14:37:38.170Z,17.26
2018-09-26T14:40:06.933Z,17.22
2018-09-26T14:42:35.286Z,17.26
2018-09-26T14:45:03.601Z,17.20
2018-09-26T14:47:31.920Z,17.19
2018-09-26T14:50:00.257Z,17.20
2018-09-26T14:52:28.569Z,17.12
2018-09-26T14:54:56.942Z,17.19
2018-09-26T14:57:25.383Z,17.15
2018-09-26T14:59:53.621Z,17.08
2018-09-26T15:02:22.013Z,17.01
2018-09-26T15:04:50.267Z,17.00
2018-09-26T15:07:18.619Z,17.00
2018-09-26T15:09:46.850Z,17.02
2018-09-26T15:12:15.320Z,17.06
2018-09-26T15:14:43.694Z,17.07
2018-09-26T15:17:12.033Z,17.07
2018-09-26T15:19:40.358Z,17.09
2018-09-26T15:22:08.810Z,17.04
2018-09-26T15:24:37.090Z,17.15
2018-09-26T15:27:08.301Z,17.10
2018-09-26T15:29:36.670Z,17.14
2018-09-26T15:32:05.061Z,17.16
2018-09-26T15:34:33.537Z,17.19
2018-09-26T15:37:02.310Z,17.20
2018-09-26T15:39:30.925Z,17.18
2018-09-26T15:41:59.587Z,17.21
2018-09-26T15:44:28.591Z,17.21
2018-09-26T15:46:58.007Z,17.21
2018-09-26T15:49:26.529Z,17.23
2018-09-26T15:51:55.452Z,17.23
2018-09-26T15:54:24.132Z,17.27
2018-09-26T15:56:53.970Z,17.37
2018-09-26T15:59:22.526Z,17.34
2018-09-26T16:01:51.171Z,17.33
2018-09-26T16:04:19.823Z,17.32
2018-09-26T16:06:48.499Z,17.33
2018-09-26T16:09:17.118Z,17.28
2018-09-26T16:11:45.469Z,17.23
2018-09-26T16:14:13.863Z,17.16
2018-09-26T16:16:42.820Z,17.14
2018-09-26T16:19:11.868Z,17.11
2018-09-26T16:21:40.635Z,17.08
2018-09-26T16:24:09.226Z,17.00
2018-09-26T16:26:37.761Z,16.91
2018-09-26T16:29:06.393Z,16.88
2018-09-26T16:31:35.227Z,16.81
2018-09-26T16:34:03.787Z,16.77
2018-09-26T16:36:32.534Z,16.65
2018-09-26T16:39:01.228Z,16.52
2018-09-26T16:41:29.847Z,16.61
2018-09-26T16:43:58.473Z,16.42
2018-09-26T16:46:27.283Z,16.45
2018-09-26T16:48:55.792Z,16.34
2018-09-26T16:51:24.337Z,16.32
2018-09-26T16:53:53.116Z,16.23
2018-09-26T16:56:21.733Z,16.24
2018-09-26T16:58:50.623Z,16.20
2018-09-26T17:01:19.276Z,16.18
2018-09-26T17:03:47.896Z,16.20
2018-09-26T17:06:16.420Z,16.06
2018-09-26T17:08:44.855Z,15.95
2018-09-26T17:11:13.765Z,15.90
2018-09-26T17:13:42.684Z,15.92
2018-09-26T17:16:11.217Z,15.90
2018-09-26T17:18:39.866Z,15.84
2018-09-26T17:21:08.800Z,15.88
2018-09-26T17:23:37.503Z,15.72
2018-09-26T17:26:06.010Z,15.72
2018-09-26T17:28:34.496Z,15.68
2018-09-26T17:31:03.200Z,15.59
2018-09-26T17:33:31.716Z,15.53
2018-09-26T17:36:00.181Z,15.52
2018-09-26T17:38:28.636Z,15.41
2018-09-26T17:40:57.261Z,15.36
2018-09-26T17:43:25.813Z,15.45
2018-09-26T17:45:54.176Z,15.35
2018-09-26T17:48:25.416Z,15.35
2018-09-26T17:50:53.706Z,15.30
2018-09-26T17:53:22.025Z,15.27
2018-09-26T17:55:50.456Z,15.32
2018-09-26T17:58:18.875Z,15.26
2018-09-26T18:00:47.336Z,15.26
2018-09-26T18:03:16.021Z,15.21
2018-09-26T18:05:44.422Z,15.24
2018-09-26T18:08:13.254Z,15.15
2018-09-26T18:10:41.748Z,15.19
2018-09-26T18:13:10.375Z,15.19
2018-09-26T18:15:39.140Z,15.12
2018-09-26T18:18:08.705Z,15.13
2018-09-26T18:20:38.545Z,15.07
2018-09-26T18:23:07.283Z,15.04
2018-09-26T18:25:36.822Z,15.26
2018-09-26T18:28:05.780Z,15.19
2018-09-26T18:30:34.315Z,15.20
2018-09-26T18:33:02.811Z,15.22
2018-09-26T18:35:31.501Z,15.26
2018-09-26T18:37:59.917Z,15.17
2018-09-26T18:40:28.586Z,15.19
2018-09-26T18:42:57.044Z,15.13
2018-09-26T18:45:25.706Z,15.10
2018-09-26T18:47:54.155Z,15.09
2018-09-26T18:50:22.617Z,15.12
2018-09-26T18:52:51.092Z,15.19
2018-09-26T18:55:19.681Z,15.14
2018-09-26T18:57:48.238Z,15.13
2018-09-26T19:00:16.712Z,15.16
2018-09-26T19:02:45.166Z,15.22
2018-09-26T19:05:13.678Z,15.11
2018-09-26T19:07:42.164Z,14.99
2018-09-26T19:10:10.736Z,14.97
2018-09-26T19:12:39.335Z,14.92
2018-09-26T19:15:08.269Z,14.88
2018-09-26T19:17:36.728Z,14.85
2018-09-26T19:20:05.576Z,14.74
2018-09-26T19:22:34.553Z,14.74
2018-09-26T19:25:03.220Z,14.74
2018-09-26T19:27:31.784Z,14.70
2018-09-26T19:30:00.397Z,14.68
2018-09-26T19:32:29.147Z,14.64
2018-09-26T19:34:57.957Z,14.68
2018-09-26T19:37:26.348Z,14.65
2018-09-26T19:39:55.901Z,14.65
2018-09-26T19:42:24.192Z,14.59
2018-09-26T19:44:52.566Z,14.61
2018-09-26T19:47:20.977Z,14.67
2018-09-26T19:49:49.308Z,14.63
2018-09-26T19:52:17.833Z,14.65
2018-09-26T19:54:46.108Z,14.73
2018-09-26T19:57:14.396Z,14.65
2018-09-26T19:59:42.557Z,14.51
2018-09-26T20:02:10.630Z,14.69
2018-09-26T20:04:38.796Z,14.52
2018-09-26T20:07:06.951Z,14.61
2018-09-26T20:09:35.188Z,14.57
2018-09-26T20:12:03.401Z,14.57
2018-09-26T20:14:32.957Z,14.60
2018-09-26T20:17:01.057Z,14.61
2018-09-26T20:19:29.390Z,14.55
2018-09-26T20:21:57.603Z,14.50
2018-09-26T20:24:25.976Z,14.57
2018-09-26T20:26:54.405Z,14.58
2018-09-26T20:29:22.718Z,14.56
2018-09-26T20:31:50.666Z,14.63
2018-09-26T20:34:18.657Z,14.54
2018-09-26T20:36:46.769Z,14.65
2018-09-26T20:39:14.786Z,14.59
2018-09-26T20:41:42.763Z,14.60
2018-09-26T20:44:10.701Z,14.55
2018-09-26T20:46:38.732Z,14.50
2018-09-26T20:49:06.773Z,14.50
2018-09-26T20:51:34.943Z,14.48
2018-09-26T20:54:02.902Z,14.44
2018-09-26T20:56:30.927Z,14.50
2018-09-26T20:58:58.956Z,14.50
2018-09-26T21:01:26.988Z,14.47
2018-09-26T21:03:54.939Z,14.40
2018-09-26T21:06:23.198Z,14.33
2018-09-26T21:08:51.146Z,14.15
2018-09-26T21:11:19.341Z,14.14
2018-09-26T21:13:47.361Z,14.08
2018-09-26T21:16:15.359Z,14.14
2018-09-26T21:18:43.317Z,14.07
2018-09-26T21:21:11.296Z,14.10
2018-09-26T21:23:39.249Z,14.24
2018-09-26T21:26:07.336Z,14.19
2018-09-26T21:28:35.285Z,14.15
2018-09-26T21:31:03.316Z,14.23
2018-09-26T21:33:31.286Z,14.26
2018-09-26T21:35:59.330Z,14.21
2018-09-26T21:38:27.333Z,14.23
2018-09-26T21:40:55.336Z,14.21
2018-09-26T21:43:23.492Z,14.20
2018-09-26T21:45:51.520Z,14.19
2018-09-26T21:48:19.655Z,14.24
2018-09-26T21:50:47.697Z,14.26
2018-09-26T21:53:15.652Z,14.26
2018-09-26T21:55:43.883Z,14.20
2018-09-26T21:58:11.911Z,14.18
2018-09-26T22:00:46.509Z,14.23
2018-09-26T22:03:14.441Z,14.23
2018-09-26T22:05:42.462Z,14.19
2018-09-26T22:08:10.482Z,14.23
2018-09-26T22:10:38.450Z,14.11
2018-09-26T22:13:06.415Z,14.17
2018-09-26T22:15:34.410Z,14.14
2018-09-26T22:18:02.404Z,14.31
2018-09-26T22:20:30.494Z,14.25
2018-09-26T22:22:58.406Z,14.39
2018-09-26T22:25:26.428Z,14.37
2018-09-26T22:27:54.519Z,14.51
2018-09-26T22:30:22.528Z,14.47
2018-09-26T22:32:50.526Z,14.58
2018-09-26T22:35:18.506Z,14.49
2018-09-26T22:37:46.567Z,14.59
2018-09-26T22:40:15.292Z,14.62
2018-09-26T22:42:43.305Z,14.61
2018-09-26T22:45:11.273Z,14.60
2018-09-26T22:47:39.293Z,14.58
2018-09-26T22:50:07.248Z,14.55
2018-09-26T22:52:35.384Z,14.56
2018-09-26T22:55:03.400Z,14.53
2018-09-26T22:57:31.453Z,14.57
2018-09-26T22:59:59.401Z,14.48
2018-09-26T23:02:27.396Z,14.55
2018-09-26T23:04:55.409Z,14.53
2018-09-26T23:07:23.450Z,14.52
2018-09-26T23:09:51.523Z,14.58
2018-09-26T23:12:19.576Z,14.57
2018-09-26T23:14:47.523Z,14.51
2018-09-26T23:17:15.846Z,14.56
2018-09-26T23:19:43.784Z,14.54
2018-09-26T23:22:11.794Z,14.55
2018-09-26T23:24:39.713Z,14.61
2018-09-26T23:27:07.717Z,14.58
2018-09-26T23:29:35.855Z,14.62
2018-09-26T23:32:03.888Z,14.66
2018-09-26T23:34:31.880Z,14.74
2018-09-26T23:37:00.004Z,14.72
2018-09-26T23:39:28.019Z,14.70
2018-09-26T23:41:55.964Z,14.81
2018-09-26T23:44:24.020Z,14.79
2018-09-26T23:46:52.109Z,14.73
2018-09-26T23:49:20.084Z,14.68
2018-09-26T23:51:48.084Z,14.76
2018-09-26T23:54:16.683Z,14.77
2018-09-26T23:56:44.643Z,14.68
2018-09-26T23:59:12.617Z,14.63
